AIC1500 VCBI-VABB
Flight info
| Callsign | AIC1500 |
|---|---|
| Flight time | N/A |
| Altitude | 34000 |
| Route | ATETA2D ATETA T4 TTR W42 BIA W56 AGELA MOLGO2A |
| Aircraft | B77W/H-SDE1E2E3FGHIJ2J3J4J5M1RWXY/LB1D1 |
Departure
| Time | 2026-05-08 17:38 |
|---|---|
| Airport | Bandaranaike International Colombo Airport (VCBI) |
Arrival
| Time | N/A |
|---|---|
| Airport | Chhatrapati Shivaji Maharaj International Airport (VABB) |
| Time | Latitude | Longitude | Altitude | Speed | Heading |
|---|---|---|---|---|---|
| 2026-05-08 16:24 | 7.17502 | 79.88332 | 51 ft | 0 kts | 216° |
| 2026-05-08 17:26 | 7.17501 | 79.88332 | 51 ft | 0 kts | 216° |
| 2026-05-08 17:26 | 7.17506 | 79.88335 | 51 ft | 2 kts | 215° |
| 2026-05-08 17:27 | 7.17525 | 79.88348 | 51 ft | 3 kts | 219° |
| 2026-05-08 17:27 | 7.17534 | 79.88361 | 51 ft | 2 kts | 253° |
| 2026-05-08 17:27 | 7.17535 | 79.88377 | 52 ft | 2 kts | 285° |
| 2026-05-08 17:27 | 7.17526 | 79.88394 | 52 ft | 3 kts | 308° |
| 2026-05-08 17:28 | 7.17523 | 79.88399 | 52 ft | 0 kts | 308° |
| 2026-05-08 17:32 | 7.17527 | 79.88393 | 52 ft | 3 kts | 308° |
| 2026-05-08 17:32 | 7.17560 | 79.88351 | 51 ft | 9 kts | 308° |
| 2026-05-08 17:33 | 7.17601 | 79.88297 | 50 ft | 9 kts | 306° |
| 2026-05-08 17:33 | 7.17622 | 79.88243 | 49 ft | 7 kts | 256° |
| 2026-05-08 17:33 | 7.17562 | 79.88181 | 48 ft | 18 kts | 218° |
| 2026-05-08 17:33 | 7.17455 | 79.88099 | 46 ft | 18 kts | 218° |
| 2026-05-08 17:34 | 7.17352 | 79.88020 | 47 ft | 18 kts | 217° |
| 2026-05-08 17:34 | 7.17243 | 79.87937 | 46 ft | 20 kts | 218° |
| 2026-05-08 17:34 | 7.17121 | 79.87842 | 45 ft | 23 kts | 218° |
| 2026-05-08 17:34 | 7.16986 | 79.87737 | 45 ft | 24 kts | 218° |
| 2026-05-08 17:35 | 7.16869 | 79.87651 | 45 ft | 12 kts | 217° |
| 2026-05-08 17:35 | 7.16836 | 79.87608 | 44 ft | 6 kts | 260° |
| 2026-05-08 17:35 | 7.16841 | 79.87585 | 45 ft | 0 kts | 305° |
| 2026-05-08 17:36 | 7.16856 | 79.87563 | 44 ft | 8 kts | 305° |
| 2026-05-08 17:36 | 7.16899 | 79.87506 | 45 ft | 10 kts | 316° |
| 2026-05-08 17:37 | 7.16976 | 79.87508 | 44 ft | 18 kts | 29° |
| 2026-05-08 17:37 | 7.17204 | 79.87677 | 45 ft | 73 kts | 38° |
| 2026-05-08 17:37 | 7.17795 | 79.88129 | 47 ft | 138 kts | 37° |
| 2026-05-08 17:37 | 7.18694 | 79.88823 | 164 ft | 181 kts | 37° |
| 2026-05-08 17:38 | 7.19723 | 79.89632 | 725 ft | 193 kts | 32° |
| 2026-05-08 17:38 | 7.20995 | 79.90063 | 1440 ft | 207 kts | 2° |
| 2026-05-08 17:38 | 7.22514 | 79.89713 | 1930 ft | 237 kts | 336° |
| 2026-05-08 17:38 | 7.23950 | 79.88751 | 2253 ft | 263 kts | 320° |
| 2026-05-08 17:39 | 7.25161 | 79.87346 | 2962 ft | 268 kts | 309° |
| 2026-05-08 17:39 | 7.26258 | 79.85826 | 3713 ft | 272 kts | 308° |
| 2026-05-08 17:39 | 7.27339 | 79.84269 | 3958 ft | 274 kts | 308° |
| 2026-05-08 17:39 | 7.28522 | 79.82757 | 3979 ft | 272 kts | 310° |
| 2026-05-08 17:40 | 7.29700 | 79.81266 | 3982 ft | 271 kts | 310° |
| 2026-05-08 17:40 | 7.30855 | 79.79777 | 3982 ft | 272 kts | 310° |
| 2026-05-08 17:40 | 7.32022 | 79.78258 | 3982 ft | 271 kts | 309° |
| 2026-05-08 17:40 | 7.33168 | 79.76765 | 3979 ft | 272 kts | 310° |
| 2026-05-08 17:41 | 7.34388 | 79.75289 | 3960 ft | 270 kts | 322° |
| 2026-05-08 17:41 | 7.35980 | 79.74255 | 4173 ft | 279 kts | 335° |
| 2026-05-08 17:41 | 7.37690 | 79.73398 | 5151 ft | 272 kts | 336° |
| 2026-05-08 17:41 | 7.39383 | 79.72574 | 5920 ft | 274 kts | 336° |
| 2026-05-08 17:42 | 7.41115 | 79.71731 | 6568 ft | 279 kts | 336° |
| 2026-05-08 17:42 | 7.42872 | 79.70873 | 7285 ft | 281 kts | 336° |
| 2026-05-08 17:42 | 7.44681 | 79.69990 | 7999 ft | 282 kts | 334° |
| 2026-05-08 17:42 | 7.46446 | 79.69127 | 8591 ft | 286 kts | 335° |
| 2026-05-08 17:43 | 7.48245 | 79.68247 | 9267 ft | 288 kts | 335° |
| 2026-05-08 17:43 | 7.50057 | 79.67363 | 9956 ft | 290 kts | 335° |
| 2026-05-08 17:43 | 7.51847 | 79.66378 | 10542 ft | 297 kts | 328° |
| 2026-05-08 17:43 | 7.53603 | 79.65168 | 10813 ft | 315 kts | 326° |
| 2026-05-08 17:44 | 7.55469 | 79.63860 | 11128 ft | 332 kts | 326° |
| 2026-05-08 17:44 | 7.57416 | 79.62507 | 11416 ft | 350 kts | 327° |
| 2026-05-08 17:44 | 7.59475 | 79.61083 | 11695 ft | 366 kts | 326° |
| 2026-05-08 17:44 | 7.61614 | 79.59607 | 12021 ft | 381 kts | 327° |
| 2026-05-08 17:45 | 7.63844 | 79.58068 | 12391 ft | 395 kts | 326° |
| 2026-05-08 17:45 | 7.66252 | 79.56405 | 12963 ft | 403 kts | 327° |
| 2026-05-08 17:45 | 7.68582 | 79.54796 | 13670 ft | 405 kts | 327° |
| 2026-05-08 17:45 | 7.70911 | 79.53188 | 14357 ft | 409 kts | 326° |
| 2026-05-08 17:46 | 7.73300 | 79.51537 | 14991 ft | 415 kts | 327° |
| 2026-05-08 17:46 | 7.75668 | 79.49902 | 15633 ft | 419 kts | 326° |
| 2026-05-08 17:46 | 7.78092 | 79.48227 | 16282 ft | 423 kts | 326° |
| 2026-05-08 17:46 | 7.80523 | 79.46547 | 16903 ft | 427 kts | 326° |
| 2026-05-08 17:47 | 7.82976 | 79.44852 | 17527 ft | 430 kts | 326° |
| 2026-05-08 17:47 | 7.85482 | 79.43119 | 18139 ft | 434 kts | 326° |
| 2026-05-08 17:47 | 7.87987 | 79.41388 | 18686 ft | 439 kts | 326° |
| 2026-05-08 17:47 | 7.89664 | 79.40228 | 19043 ft | 442 kts | 326° |
| 2026-05-08 17:48 | 7.93062 | 79.37878 | 19774 ft | 447 kts | 326° |
| 2026-05-08 17:48 | 7.95667 | 79.36077 | 20305 ft | 451 kts | 326° |
| 2026-05-08 17:48 | 7.98261 | 79.34282 | 20816 ft | 455 kts | 326° |
| 2026-05-08 17:48 | 8.00859 | 79.32484 | 21306 ft | 458 kts | 326° |
| 2026-05-08 17:49 | 8.03493 | 79.30653 | 21782 ft | 462 kts | 326° |
| 2026-05-08 17:49 | 8.06142 | 79.28800 | 22271 ft | 465 kts | 326° |
| 2026-05-08 17:49 | 8.08836 | 79.26914 | 22745 ft | 469 kts | 326° |
| 2026-05-08 17:49 | 8.11522 | 79.25034 | 23200 ft | 473 kts | 326° |
| 2026-05-08 17:50 | 8.14217 | 79.23148 | 23647 ft | 476 kts | 326° |
| 2026-05-08 17:50 | 8.16954 | 79.21231 | 24081 ft | 480 kts | 326° |
| 2026-05-08 17:50 | 8.19712 | 79.19301 | 24516 ft | 484 kts | 326° |
| 2026-05-08 17:50 | 8.22518 | 79.17336 | 24969 ft | 487 kts | 326° |
| 2026-05-08 17:51 | 8.25306 | 79.15384 | 25395 ft | 491 kts | 326° |
| 2026-05-08 17:51 | 8.28130 | 79.13407 | 25786 ft | 495 kts | 326° |
| 2026-05-08 17:51 | 8.30966 | 79.11420 | 26189 ft | 498 kts | 326° |
| 2026-05-08 17:51 | 8.33812 | 79.09427 | 26595 ft | 502 kts | 326° |
| 2026-05-08 17:52 | 8.36698 | 79.07405 | 27018 ft | 505 kts | 326° |
| 2026-05-08 17:52 | 8.39601 | 79.05371 | 27425 ft | 508 kts | 326° |
| 2026-05-08 17:52 | 8.45431 | 79.01284 | 28156 ft | 516 kts | 326° |
| 2026-05-08 17:53 | 8.48422 | 78.99187 | 28517 ft | 520 kts | 326° |
| 2026-05-08 17:53 | 8.51372 | 78.97119 | 28906 ft | 523 kts | 326° |
| 2026-05-08 17:53 | 8.54386 | 78.95004 | 29400 ft | 524 kts | 326° |
| 2026-05-08 17:53 | 8.57329 | 78.92919 | 30060 ft | 521 kts | 324° |
| 2026-05-08 17:54 | 8.60235 | 78.90724 | 30802 ft | 516 kts | 323° |
| 2026-05-08 17:54 | 8.63105 | 78.88534 | 31441 ft | 514 kts | 323° |
| 2026-05-08 17:54 | 8.65924 | 78.86385 | 31975 ft | 513 kts | 323° |
| 2026-05-08 17:54 | 8.68785 | 78.84206 | 32541 ft | 511 kts | 323° |
| 2026-05-08 17:55 | 8.71619 | 78.82050 | 33135 ft | 510 kts | 323° |
| 2026-05-08 17:55 | 8.74425 | 78.79917 | 33712 ft | 508 kts | 323° |
| 2026-05-08 17:55 | 8.77302 | 78.77731 | 33826 ft | 511 kts | 323° |
| 2026-05-08 17:56 | 8.83055 | 78.73360 | 33833 ft | 509 kts | 323° |
| 2026-05-08 17:56 | 8.88734 | 78.69048 | 33833 ft | 509 kts | 323° |
| 2026-05-08 17:57 | 8.94440 | 78.64714 | 33834 ft | 509 kts | 323° |
| 2026-05-08 17:57 | 9.00122 | 78.60399 | 33835 ft | 509 kts | 323° |
| 2026-05-08 17:58 | 9.05781 | 78.56098 | 33829 ft | 507 kts | 323° |
| 2026-05-08 17:58 | 9.11476 | 78.51771 | 33833 ft | 510 kts | 322° |
| 2026-05-08 17:59 | 9.17191 | 78.47425 | 33839 ft | 508 kts | 323° |
| 2026-05-08 17:59 | 9.22873 | 78.43103 | 33838 ft | 510 kts | 322° |
| 2026-05-08 18:00 | 9.28550 | 78.38783 | 33841 ft | 509 kts | 322° |
| 2026-05-08 18:00 | 9.37098 | 78.32275 | 33851 ft | 510 kts | 322° |
| 2026-05-08 18:01 | 9.42811 | 78.27924 | 33851 ft | 510 kts | 322° |
| 2026-05-08 18:01 | 9.48578 | 78.23529 | 33851 ft | 510 kts | 322° |
| 2026-05-08 18:02 | 9.53379 | 78.19869 | 33853 ft | 510 kts | 322° |
| 2026-05-08 18:02 | 9.59994 | 78.14824 | 33871 ft | 511 kts | 322° |
| 2026-05-08 18:03 | 9.65798 | 78.10395 | 33879 ft | 513 kts | 322° |
| 2026-05-08 18:03 | 9.71535 | 78.06016 | 33885 ft | 513 kts | 322° |
| 2026-05-08 18:04 | 9.77238 | 78.01660 | 33888 ft | 512 kts | 322° |
| 2026-05-08 18:04 | 9.82979 | 77.97274 | 33892 ft | 514 kts | 322° |
| 2026-05-08 18:05 | 9.88734 | 77.92876 | 33901 ft | 512 kts | 322° |
| 2026-05-08 18:05 | 9.94418 | 77.88528 | 33906 ft | 514 kts | 322° |
| 2026-05-08 18:06 | 10.00141 | 77.84150 | 33913 ft | 512 kts | 322° |
| 2026-05-08 18:06 | 10.05822 | 77.79802 | 33942 ft | 512 kts | 322° |
| 2026-05-08 18:07 | 10.11531 | 77.75429 | 33933 ft | 513 kts | 322° |
| 2026-05-08 18:07 | 10.17200 | 77.71087 | 33935 ft | 511 kts | 322° |
| 2026-05-08 18:08 | 10.22887 | 77.66727 | 33977 ft | 510 kts | 322° |
| 2026-05-08 18:08 | 10.28569 | 77.62371 | 34020 ft | 512 kts | 323° |
| 2026-05-08 18:09 | 10.34261 | 77.58005 | 34030 ft | 510 kts | 323° |
| 2026-05-08 18:09 | 10.39908 | 77.53670 | 34011 ft | 510 kts | 322° |
| 2026-05-08 18:10 | 10.45634 | 77.49274 | 33982 ft | 511 kts | 323° |
| 2026-05-08 18:10 | 10.51293 | 77.44926 | 33939 ft | 509 kts | 323° |
| 2026-05-08 18:11 | 10.56997 | 77.40542 | 33941 ft | 509 kts | 323° |
| 2026-05-08 18:11 | 10.62664 | 77.36184 | 33938 ft | 510 kts | 323° |
| 2026-05-08 18:12 | 10.68426 | 77.31751 | 33935 ft | 509 kts | 322° |
| 2026-05-08 18:12 | 10.74105 | 77.27380 | 33942 ft | 509 kts | 322° |
| 2026-05-08 18:13 | 10.79766 | 77.23021 | 33941 ft | 510 kts | 322° |
| 2026-05-08 18:13 | 10.85718 | 77.18435 | 33942 ft | 509 kts | 322° |
| 2026-05-08 18:14 | 10.91409 | 77.14048 | 33943 ft | 509 kts | 322° |
| 2026-05-08 18:14 | 10.97301 | 77.09504 | 33941 ft | 507 kts | 322° |
| 2026-05-08 18:15 | 11.03461 | 77.04562 | 33937 ft | 507 kts | 315° |
| 2026-05-08 18:15 | 11.08476 | 76.99114 | 33944 ft | 506 kts | 311° |
| 2026-05-08 18:16 | 11.13224 | 76.93813 | 33943 ft | 508 kts | 311° |
| 2026-05-08 18:16 | 11.18035 | 76.88438 | 33955 ft | 508 kts | 311° |
| 2026-05-08 18:17 | 11.22812 | 76.83099 | 33966 ft | 507 kts | 311° |
| 2026-05-08 18:17 | 11.27571 | 76.77780 | 33979 ft | 507 kts | 311° |
| 2026-05-08 18:18 | 11.32352 | 76.72433 | 34023 ft | 508 kts | 311° |
| 2026-05-08 18:18 | 11.37080 | 76.67143 | 34067 ft | 505 kts | 311° |
| 2026-05-08 18:19 | 11.41856 | 76.61796 | 34093 ft | 507 kts | 312° |
| 2026-05-08 18:19 | 11.46604 | 76.56477 | 34090 ft | 507 kts | 312° |
| 2026-05-08 18:20 | 11.51379 | 76.51126 | 34064 ft | 507 kts | 312° |
| 2026-05-08 18:20 | 11.56181 | 76.45740 | 34045 ft | 508 kts | 312° |
| 2026-05-08 18:21 | 11.61180 | 76.40132 | 34035 ft | 506 kts | 312° |
| 2026-05-08 18:21 | 11.66273 | 76.34415 | 34034 ft | 507 kts | 312° |
| 2026-05-08 18:22 | 11.71223 | 76.28854 | 34037 ft | 506 kts | 312° |
| 2026-05-08 18:22 | 11.75999 | 76.23487 | 34038 ft | 506 kts | 311° |
| 2026-05-08 18:23 | 11.80718 | 76.18181 | 34030 ft | 507 kts | 312° |
| 2026-05-08 18:23 | 11.85517 | 76.12781 | 34019 ft | 505 kts | 312° |
| 2026-05-08 18:24 | 11.90247 | 76.07455 | 34022 ft | 507 kts | 311° |
| 2026-05-08 18:24 | 11.94982 | 76.02123 | 34026 ft | 506 kts | 311° |
| 2026-05-08 18:25 | 11.99730 | 75.96770 | 34017 ft | 506 kts | 311° |
| 2026-05-08 18:25 | 12.04498 | 75.91394 | 33996 ft | 505 kts | 311° |
| 2026-05-08 18:26 | 12.09244 | 75.86039 | 33975 ft | 505 kts | 312° |
| 2026-05-08 18:26 | 12.13974 | 75.80698 | 33977 ft | 506 kts | 312° |
| 2026-05-08 18:27 | 12.17227 | 75.77024 | 33970 ft | 506 kts | 312° |
| 2026-05-08 18:27 | 12.23624 | 75.69795 | 33992 ft | 507 kts | 312° |
| 2026-05-08 18:28 | 12.28628 | 75.64136 | 33989 ft | 506 kts | 312° |
| 2026-05-08 18:28 | 12.33513 | 75.58608 | 33970 ft | 506 kts | 312° |
| 2026-05-08 18:29 | 12.38339 | 75.53142 | 33941 ft | 505 kts | 312° |
| 2026-05-08 18:29 | 12.43276 | 75.47549 | 33907 ft | 504 kts | 312° |
| 2026-05-08 18:30 | 12.48159 | 75.42014 | 33887 ft | 504 kts | 312° |
| 2026-05-08 18:30 | 12.53064 | 75.36449 | 33883 ft | 505 kts | 312° |
| 2026-05-08 18:31 | 12.57986 | 75.30862 | 33887 ft | 504 kts | 312° |
| 2026-05-08 18:31 | 12.63225 | 75.24912 | 33866 ft | 503 kts | 312° |
| 2026-05-08 18:32 | 12.68507 | 75.18909 | 33858 ft | 504 kts | 312° |
| 2026-05-08 18:32 | 12.73398 | 75.13346 | 33847 ft | 502 kts | 312° |
| 2026-05-08 18:33 | 12.78169 | 75.07916 | 33857 ft | 504 kts | 312° |
| 2026-05-08 18:33 | 12.83139 | 75.02257 | 33849 ft | 502 kts | 312° |
| 2026-05-08 18:34 | 12.87964 | 74.96759 | 33846 ft | 503 kts | 312° |
| 2026-05-08 18:34 | 12.92904 | 74.91219 | 33833 ft | 502 kts | 317° |
| 2026-05-08 18:35 | 12.98741 | 74.87026 | 33837 ft | 501 kts | 335° |
| 2026-05-08 18:35 | 13.05330 | 74.84073 | 33839 ft | 501 kts | 337° |
| 2026-05-08 18:36 | 13.11988 | 74.81162 | 33838 ft | 501 kts | 337° |
| 2026-05-08 18:36 | 13.18689 | 74.78226 | 33835 ft | 501 kts | 337° |
| 2026-05-08 18:37 | 13.25377 | 74.75293 | 33830 ft | 501 kts | 337° |
| 2026-05-08 18:37 | 13.31881 | 74.72437 | 33830 ft | 501 kts | 337° |
| 2026-05-08 18:38 | 13.38497 | 74.69529 | 33829 ft | 500 kts | 337° |
| 2026-05-08 18:38 | 13.45137 | 74.66608 | 33830 ft | 499 kts | 337° |
| 2026-05-08 18:39 | 13.51680 | 74.63728 | 33831 ft | 499 kts | 337° |
| 2026-05-08 18:39 | 13.58304 | 74.60811 | 33828 ft | 499 kts | 337° |
| 2026-05-08 18:40 | 13.65244 | 74.57752 | 33825 ft | 499 kts | 337° |
| 2026-05-08 18:40 | 13.72080 | 74.54738 | 33829 ft | 497 kts | 337° |
| 2026-05-08 18:41 | 13.78918 | 74.51720 | 33829 ft | 497 kts | 337° |
| 2026-05-08 18:41 | 13.85576 | 74.48780 | 33824 ft | 497 kts | 337° |
| 2026-05-08 18:42 | 13.92121 | 74.45888 | 33820 ft | 498 kts | 337° |
| 2026-05-08 18:42 | 13.98612 | 74.43018 | 33828 ft | 499 kts | 337° |
| 2026-05-08 18:43 | 14.05387 | 74.40022 | 33821 ft | 497 kts | 337° |
| 2026-05-08 18:43 | 14.11904 | 74.37137 | 33826 ft | 497 kts | 337° |
| 2026-05-08 18:44 | 14.18592 | 74.34174 | 33823 ft | 495 kts | 336° |
| 2026-05-08 18:44 | 14.25572 | 74.31080 | 33823 ft | 495 kts | 336° |
| 2026-05-08 18:45 | 14.32253 | 74.28117 | 33821 ft | 496 kts | 336° |
| 2026-05-08 18:45 | 14.39153 | 74.25055 | 33816 ft | 495 kts | 337° |
| 2026-05-08 18:46 | 14.45834 | 74.22088 | 33815 ft | 493 kts | 336° |
| 2026-05-08 18:46 | 14.52365 | 74.19185 | 33812 ft | 494 kts | 336° |
| 2026-05-08 18:47 | 14.59183 | 74.16153 | 33815 ft | 493 kts | 336° |
| 2026-05-08 18:47 | 14.65868 | 74.13178 | 33814 ft | 492 kts | 336° |
| 2026-05-08 18:48 | 14.72648 | 74.10159 | 33803 ft | 493 kts | 336° |
| 2026-05-08 18:48 | 14.79274 | 74.07207 | 33796 ft | 494 kts | 336° |
| 2026-05-08 18:49 | 14.85863 | 74.04269 | 33801 ft | 492 kts | 336° |
| 2026-05-08 18:49 | 14.92486 | 74.01313 | 33796 ft | 492 kts | 336° |
| 2026-05-08 18:50 | 14.99275 | 73.98282 | 33801 ft | 491 kts | 336° |
| 2026-05-08 18:50 | 15.04852 | 73.95791 | 33807 ft | 491 kts | 336° |
| 2026-05-08 18:51 | 15.12504 | 73.92369 | 33810 ft | 493 kts | 336° |
| 2026-05-08 18:51 | 15.19301 | 73.89329 | 33814 ft | 493 kts | 336° |
| 2026-05-08 18:52 | 15.25832 | 73.86404 | 33817 ft | 492 kts | 336° |
| 2026-05-08 18:52 | 15.32370 | 73.83475 | 33822 ft | 491 kts | 336° |
| 2026-05-08 18:53 | 15.38889 | 73.80414 | 33828 ft | 491 kts | 331° |
| 2026-05-08 18:53 | 15.45227 | 73.76788 | 33827 ft | 491 kts | 330° |
| 2026-05-08 18:54 | 15.51413 | 73.73224 | 33826 ft | 492 kts | 330° |
| 2026-05-08 18:54 | 15.57501 | 73.69717 | 33831 ft | 491 kts | 330° |
| 2026-05-08 18:55 | 15.66625 | 73.64460 | 33825 ft | 492 kts | 330° |
| 2026-05-08 18:56 | 15.72724 | 73.60944 | 33829 ft | 492 kts | 330° |
| 2026-05-08 18:56 | 15.78909 | 73.57375 | 33832 ft | 492 kts | 330° |
| 2026-05-08 18:57 | 15.85114 | 73.53793 | 33833 ft | 492 kts | 330° |
| 2026-05-08 18:57 | 15.91411 | 73.50156 | 33830 ft | 491 kts | 330° |
| 2026-05-08 18:58 | 15.97683 | 73.46530 | 33832 ft | 490 kts | 330° |
| 2026-05-08 18:58 | 16.03961 | 73.42898 | 33831 ft | 491 kts | 330° |
| 2026-05-08 18:59 | 16.10470 | 73.39130 | 33827 ft | 493 kts | 330° |
| 2026-05-08 18:59 | 16.16721 | 73.35509 | 33825 ft | 492 kts | 330° |
| 2026-05-08 19:00 | 16.22028 | 73.32432 | 33829 ft | 492 kts | 329° |
| 2026-05-08 19:00 | 16.29631 | 73.28020 | 33826 ft | 491 kts | 329° |
| 2026-05-08 19:01 | 16.35872 | 73.24397 | 33830 ft | 490 kts | 329° |
| 2026-05-08 19:01 | 16.42244 | 73.20693 | 33822 ft | 491 kts | 329° |
| 2026-05-08 19:02 | 16.48657 | 73.16964 | 33824 ft | 491 kts | 329° |
| 2026-05-08 19:02 | 16.54845 | 73.13363 | 33824 ft | 490 kts | 329° |
| 2026-05-08 19:03 | 16.61168 | 73.09682 | 33826 ft | 490 kts | 329° |
| 2026-05-08 19:03 | 16.67341 | 73.06093 | 33825 ft | 490 kts | 329° |
| 2026-05-08 19:04 | 16.73466 | 73.02530 | 33825 ft | 489 kts | 329° |
| 2026-05-08 19:04 | 16.79768 | 72.98860 | 33819 ft | 490 kts | 329° |
| 2026-05-08 19:05 | 16.85937 | 72.95266 | 33810 ft | 489 kts | 329° |
| 2026-05-08 19:05 | 16.92068 | 72.91690 | 33810 ft | 489 kts | 329° |
| 2026-05-08 19:06 | 16.98541 | 72.87913 | 33811 ft | 489 kts | 329° |
| 2026-05-08 19:06 | 17.05201 | 72.84023 | 33809 ft | 488 kts | 330° |
| 2026-05-08 19:07 | 17.11599 | 72.80336 | 33810 ft | 489 kts | 331° |
| 2026-05-08 19:07 | 17.18355 | 72.76624 | 33810 ft | 489 kts | 331° |
| 2026-05-08 19:08 | 17.25009 | 72.72960 | 33818 ft | 489 kts | 331° |
| 2026-05-08 19:08 | 17.31269 | 72.69505 | 33823 ft | 489 kts | 331° |
| 2026-05-08 19:09 | 17.37970 | 72.65801 | 33825 ft | 488 kts | 331° |
| 2026-05-08 19:09 | 17.41077 | 72.64082 | 33829 ft | 489 kts | 331° |
| 2026-05-08 19:22 | 17.42510 | 72.63288 | 33826 ft | 489 kts | 331° |
| 2026-05-08 19:22 | 17.48517 | 72.59961 | 33825 ft | 489 kts | 331° |